Time;durP1;ratioP1;P1;durP2;ratioP2;P2;SDS_P1;SDS_P2;PMS_P1;PMS_P2;Temp;Humidity;BMP_temperature;BMP_pressure;BME280_temperature;BME280_humidity;BME280_pressure;Samples;Min_cycle;Max_cycle;Signal;HPM_P1;HPM_P2
2023/03/21 00:00:57;;;;;;;12.18;6.88;;;;;;;14.41;47.19;101326.88;5076518;27;96994;-73
2023/03/21 00:03:24;;;;;;;12.63;7.30;;;;;;;14.44;47.34;101324.06;5074733;27;98288;-74
2023/03/21 00:05:52;;;;;;;9.30;6.55;;;;;;;14.59;46.81;101322.56;5074534;27;98912;-74
2023/03/21 00:08:19;;;;;;;16.92;7.18;;;;;;;14.55;46.87;101321.84;5076992;27;96789;-75
2023/03/21 00:10:47;;;;;;;12.57;6.07;;;;;;;14.59;46.88;101323.41;5069579;27;98499;-73
2023/03/21 00:13:17;;;;;;;12.02;6.75;;;;;;;14.62;46.65;101317.97;5078003;27;101307;-74
2023/03/21 00:15:50;;;;;;;11.65;7.53;;;;;;;14.57;47.29;101311.97;5081495;27;99796;-74
2023/03/21 00:18:19;;;;;;;14.20;6.88;;;;;;;14.54;47.14;101314.78;5074983;27;97224;-72
2023/03/21 00:20:57;;;;;;;14.25;7.55;;;;;;;14.55;46.75;101316.50;5065702;27;97719;-74
2023/03/21 00:23:23;;;;;;;16.33;7.93;;;;;;;14.43;47.15;101311.72;5081699;27;97849;-72
2023/03/21 00:25:50;;;;;;;13.65;7.93;;;;;;;14.63;47.03;101311.75;5081007;27;98920;-73
2023/03/21 00:28:17;;;;;;;10.13;7.60;;;;;;;14.58;46.67;101313.72;5074416;27;97502;-73
2023/03/21 00:30:43;;;;;;;9.98;7.80;;;;;;;14.50;47.13;101313.19;5078013;27;97001;-72
2023/03/21 00:33:11;;;;;;;13.23;8.23;;;;;;;14.46;47.50;101306.25;5078588;27;97414;-72
2023/03/21 00:35:41;;;;;;;14.18;8.95;;;;;;;14.45;47.18;101314.28;5075803;27;99277;-72
2023/03/21 00:38:07;;;;;;;11.82;8.07;;;;;;;14.30;47.45;101308.69;5083768;27;96782;-72
2023/03/21 00:40:34;;;;;;;12.57;7.88;;;;;;;14.28;47.32;101301.69;5074015;27;96871;-72
2023/03/21 00:43:00;;;;;;;17.05;9.13;;;;;;;14.37;47.32;101306.63;5084287;27;98920;-73
2023/03/21 00:45:27;;;;;;;13.63;8.70;;;;;;;14.33;47.61;101300.56;5079765;27;98140;-71
2023/03/21 00:47:53;;;;;;;14.18;8.25;;;;;;;14.34;47.62;101301.44;5082899;27;97132;-72
2023/03/21 00:50:20;;;;;;;14.32;8.60;;;;;;;14.34;47.66;101304.97;5077135;27;97352;-72
2023/03/21 00:52:48;;;;;;;14.02;8.85;;;;;;;14.45;47.35;101296.53;5081315;27;99786;-72
2023/03/21 00:55:16;;;;;;;15.13;8.60;;;;;;;14.44;47.29;101296.63;5080006;27;99236;-72
2023/03/21 00:57:44;;;;;;;13.98;9.38;;;;;;;14.28;47.65;101293.72;5082786;27;97321;-74
2023/03/21 01:00:13;;;;;;;13.35;9.15;;;;;;;14.25;47.74;101296.50;5078685;27;99649;-73
2023/03/21 01:02:55;;;;;;;14.20;10.38;;;;;;;14.42;47.19;101294.03;5084375;27;99190;-73
2023/03/21 01:06:02;;;;;;;18.85;10.57;;;;;;;14.46;47.31;101294.75;5082224;27;100315;-72
2023/03/21 01:08:11;;;;;;;12.15;9.70;;;;;;;14.40;47.15;101293.22;5087367;27;96955;-72
2023/03/21 01:10:39;;;;;;;14.70;10.38;;;;;;;14.38;47.31;101292.41;5080172;27;97704;-72
2023/03/21 01:13:05;;;;;;;19.58;11.60;;;;;;;14.16;48.23;101297.75;5082610;27;100584;-71
2023/03/21 01:15:31;;;;;;;14.52;11.52;;;;;;;14.21;48.61;101293.13;5084901;27;97670;-72
2023/03/21 01:17:58;;;;;;;16.52;11.73;;;;;;;14.19;48.81;101286.13;5075239;27;96778;-72
2023/03/21 01:20:25;;;;;;;18.02;12.95;;;;;;;14.28;48.47;101286.63;5079128;27;97190;-72
2023/03/21 01:22:51;;;;;;;19.25;12.90;;;;;;;14.18;48.38;101295.00;5074898;27;99440;-71
2023/03/21 01:25:19;;;;;;;19.70;12.63;;;;;;;14.13;48.53;101289.91;5074489;27;101522;-73
2023/03/21 01:27:46;;;;;;;16.65;12.68;;;;;;;14.17;48.89;101288.88;5078097;27;96827;-72
2023/03/21 01:30:12;;;;;;;16.13;13.20;;;;;;;14.25;48.23;101286.72;5084272;27;96840;-71
2023/03/21 01:32:39;;;;;;;18.20;12.07;;;;;;;14.29;48.43;101288.34;5082240;27;99022;-72
2023/03/21 01:35:06;;;;;;;20.08;12.43;;;;;;;14.34;48.43;101293.47;5074111;27;102371;-72
2023/03/21 01:37:33;;;;;;;20.27;11.98;;;;;;;14.24;48.93;101284.16;5086008;27;97120;-71
2023/03/21 01:39:59;;;;;;;23.17;15.52;;;;;;;14.19;48.29;101286.13;5085027;27;97023;-71
2023/03/21 01:42:27;;;;;;;18.75;14.02;;;;;;;14.06;48.63;101287.56;5087370;27;102156;-72
2023/03/21 01:44:57;;;;;;;23.13;14.93;;;;;;;14.10;48.76;101291.84;5079670;27;98188;-72
2023/03/21 01:47:24;;;;;;;21.25;14.98;;;;;;;14.13;49.06;101284.59;5084409;27;96815;-74
2023/03/21 01:49:55;;;;;;;22.08;16.00;;;;;;;14.07;48.69;101287.50;5084103;27;97199;-74
2023/03/21 01:52:26;;;;;;;22.45;17.38;;;;;;;14.10;49.02;101291.84;5082189;27;98265;-75
2023/03/21 01:54:56;;;;;;;24.52;17.40;;;;;;;14.01;49.04;101286.88;5084816;27;98782;-75
2023/03/21 01:57:31;;;;;;;24.15;17.63;;;;;;;14.05;48.77;101285.81;5080127;27;96907;-75
2023/03/21 02:00:11;;;;;;;24.08;17.52;;;;;;;14.09;48.96;101282.13;5082587;27;97358;-74
2023/03/21 02:02:49;;;;;;;24.42;19.38;;;;;;;13.32;50.89;101281.69;5082153;27;99034;-74
2023/03/21 02:05:17;;;;;;;23.48;18.50;;;;;;;13.64;50.58;101285.72;5078317;27;98783;-74
2023/03/21 02:07:44;;;;;;;25.27;18.17;;;;;;;13.57;50.64;101281.59;5080663;27;96791;-74
2023/03/21 02:10:13;;;;;;;26.15;18.48;;;;;;;13.44;51.20;101283.00;5079497;27;97720;-73
2023/03/21 02:12:41;;;;;;;30.25;19.50;;;;;;;13.51;50.93;101287.13;5082895;27;98876;-74
2023/03/21 02:15:09;;;;;;;23.60;18.52;;;;;;;13.67;50.68;101288.25;5084408;27;98944;-73
2023/03/21 02:17:41;;;;;;;25.65;20.13;;;;;;;13.90;50.34;101280.25;5085766;27;98643;-73
2023/03/21 02:20:34;;;;;;;26.92;20.40;;;;;;;13.76;50.62;101277.28;5082209;27;96677;-75
2023/03/21 02:23:23;;;;;;;28.17;21.25;;;;;;;13.55;51.10;101284.28;5075336;27;101843;-74
2023/03/21 02:26:19;;;;;;;33.17;22.25;;;;;;;13.30;51.95;101282.66;5082261;27;102055;-75
2023/03/21 02:28:52;;;;;;;28.80;20.92;;;;;;;13.54;51.57;101282.56;5076842;27;97089;-74
2023/03/21 02:31:28;;;;;;;30.75;22.15;;;;;;;13.46;51.58;101278.47;5085071;27;96879;-74
2023/03/21 02:34:21;;;;;;;34.25;21.63;;;;;;;13.53;51.89;101272.00;5078551;27;99031;-74
2023/03/21 02:36:58;;;;;;;37.20;22.27;;;;;;;13.64;51.55;101274.25;5081943;27;102321;-74
2023/03/21 02:39:29;;;;;;;28.45;21.02;;;;;;;13.70;51.43;101280.16;5079004;27;97002;-74
2023/03/21 02:42:06;;;;;;;31.50;21.65;;;;;;;13.58;51.66;101272.69;5082238;27;96832;-74
2023/03/21 02:44:40;;;;;;;31.17;21.63;;;;;;;13.31;52.46;101274.63;5077229;27;99337;-74
2023/03/21 02:47:12;;;;;;;32.50;21.88;;;;;;;13.36;52.78;101274.44;5077801;27;101168;-74
2023/03/21 02:49:44;;;;;;;32.75;21.42;;;;;;;13.47;52.43;101280.19;5087933;27;97217;-74
2023/03/21 02:52:17;;;;;;;29.92;21.42;;;;;;;13.62;52.27;101273.44;5079605;27;96768;-74
2023/03/21 02:54:47;;;;;;;30.20;22.13;;;;;;;13.60;52.19;101276.13;5082211;27;98985;-74
2023/03/21 02:57:15;;;;;;;30.65;22.42;;;;;;;13.63;52.21;101275.16;5080012;27;99067;-75
2023/03/21 02:59:42;;;;;;;32.35;22.83;;;;;;;13.51;52.71;101274.72;5076001;27;96848;-74
2023/03/21 03:02:09;;;;;;;39.63;22.25;;;;;;;13.41;52.89;101276.00;5083027;27;96946;-75
2023/03/21 03:04:35;;;;;;;30.48;22.40;;;;;;;13.59;52.54;101277.06;5079680;27;99392;-75
2023/03/21 03:07:20;;;;;;;33.97;22.02;;;;;;;13.59;52.77;101285.03;5076927;27;99255;-75
2023/03/21 03:10:02;;;;;;;33.58;22.38;;;;;;;13.59;52.76;101285.03;5076656;27;96780;-74
2023/03/21 03:12:36;;;;;;;32.58;23.45;;;;;;;13.63;52.72;101280.47;5079367;27;96750;-78
2023/03/21 03:15:16;;;;;;;36.25;23.35;;;;;;;13.45;53.83;101282.06;5080643;27;98980;-75
2023/03/21 03:17:51;;;;;;;33.13;22.10;;;;;;;13.55;53.43;101278.13;5081817;27;99161;-75
2023/03/21 03:20:24;;;;;;;34.10;23.23;;;;;;;13.51;53.80;101279.16;5078839;27;96790;-75
2023/03/21 03:23:01;;;;;;;34.15;22.73;;;;;;;13.57;53.62;101273.63;5072402;27;97788;-75
2023/03/21 03:25:35;;;;;;;31.27;21.67;;;;;;;13.52;53.93;101280.91;5078383;27;99389;-75
2023/03/21 03:28:04;;;;;;;32.45;22.63;;;;;;;13.36;54.12;101283.28;5075688;27;99642;-75
2023/03/21 03:30:31;;;;;;;34.65;21.95;;;;;;;13.38;54.22;101275.25;5078996;27;98841;-75
2023/03/21 03:33:02;;;;;;;34.72;22.75;;;;;;;13.22;54.88;101279.41;5078265;27;97064;-75
2023/03/21 03:35:30;;;;;;;37.92;23.38;;;;;;;13.32;54.61;101279.03;5081288;27;99209;-75
2023/03/21 03:38:01;;;;;;;35.95;23.27;;;;;;;13.31;55.04;101279.06;5075375;27;98829;-74
2023/03/21 03:40:31;;;;;;;36.05;22.13;;;;;;;13.38;55.02;101286.75;5075404;27;98455;-75
2023/03/21 03:43:03;;;;;;;32.90;22.73;;;;;;;13.20;55.70;101284.78;5076131;27;97204;-75
2023/03/21 03:45:34;;;;;;;33.40;23.35;;;;;;;13.08;56.62;101286.06;5073720;27;99330;-75
2023/03/21 03:48:05;;;;;;;35.55;23.15;;;;;;;13.14;56.61;101291.19;5075028;27;97851;-75
2023/03/21 03:50:37;;;;;;;33.13;24.23;;;;;;;12.99;56.91;101281.13;5080755;27;98508;-74
2023/03/21 03:53:13;;;;;;;40.05;23.85;;;;;;;13.25;56.50;101280.19;5077447;27;97642;-74
2023/03/21 03:55:40;;;;;;;35.27;23.60;;;;;;;13.38;55.92;101285.88;5073078;27;97674;-75
2023/03/21 03:58:07;;;;;;;36.47;23.25;;;;;;;13.41;55.82;101296.38;5083141;27;98913;-75
2023/03/21 04:00:34;;;;;;;33.03;22.08;;;;;;;13.41;55.57;101286.63;5078370;27;98556;-75
2023/03/21 04:03:00;;;;;;;39.33;23.92;;;;;;;13.20;56.25;101279.47;5070319;27;98867;-75
2023/03/21 04:05:27;;;;;;;36.33;23.52;;;;;;;13.56;55.74;101277.19;5074044;27;99317;-74
2023/03/21 04:07:53;;;;;;;39.60;24.42;;;;;;;13.61;55.29;101285.84;5083584;27;98183;-77
2023/03/21 04:10:21;;;;;;;36.75;22.80;;;;;;;13.53;55.22;101275.50;5082537;27;97044;-75
2023/03/21 04:12:48;;;;;;;34.92;21.95;;;;;;;13.58;55.11;101283.31;5077527;27;96978;-75
2023/03/21 04:15:15;;;;;;;31.30;22.95;;;;;;;13.49;55.39;101283.66;5070775;27;99377;-74
2023/03/21 04:17:44;;;;;;;37.65;22.35;;;;;;;13.51;55.27;101276.50;5073231;27;101778;-75
2023/03/21 04:20:11;;;;;;;36.53;22.70;;;;;;;13.41;55.70;101277.78;5082411;27;98373;-74
2023/03/21 04:22:37;;;;;;;33.78;22.25;;;;;;;13.30;55.86;101274.69;5080937;27;96903;-76
2023/03/21 04:25:05;;;;;;;35.03;21.88;;;;;;;13.28;56.28;101277.38;5079236;27;99391;-74
2023/03/21 04:27:33;;;;;;;41.10;22.33;;;;;;;13.33;55.98;101279.84;5076565;27;99275;-74
2023/03/21 04:29:59;;;;;;;30.63;21.70;;;;;;;13.23;56.08;101275.84;5083057;27;96806;-74
2023/03/21 04:32:26;;;;;;;40.05;23.33;;;;;;;13.23;56.35;101279.38;5088619;27;96822;-74
2023/03/21 04:34:53;;;;;;;36.00;23.48;;;;;;;13.30;56.16;101274.69;5079701;27;98394;-74
2023/03/21 04:37:22;;;;;;;34.42;21.33;;;;;;;13.25;56.36;101276.66;5089011;27;98929;-74
2023/03/21 04:39:49;;;;;;;39.70;22.63;;;;;;;13.39;56.09;101283.16;5085425;27;97431;-74
2023/03/21 04:42:17;;;;;;;35.80;22.25;;;;;;;13.21;56.87;101283.84;5083174;27;97222;-74
2023/03/21 04:44:46;;;;;;;36.65;22.65;;;;;;;13.32;56.59;101284.34;5076010;27;98310;-74
2023/03/21 04:47:14;;;;;;;35.65;22.15;;;;;;;12.95;57.59;101286.56;5078991;27;99262;-74
2023/03/21 04:49:41;;;;;;;41.20;21.98;;;;;;;13.11;57.23;101280.66;5080637;27;97647;-75
2023/03/21 04:52:07;;;;;;;32.85;22.13;;;;;;;13.10;57.29;101280.72;5085005;27;97055;-74
2023/03/21 04:54:34;;;;;;;36.58;21.65;;;;;;;13.34;56.57;101281.59;5080022;27;99464;-74
2023/03/21 04:57:00;;;;;;;34.72;21.30;;;;;;;13.23;56.82;101275.84;5080653;27;99158;-76
2023/03/21 04:59:27;;;;;;;35.15;21.75;;;;;;;13.29;56.48;101284.44;5077613;27;96987;-74
2023/03/21 05:01:55;;;;;;;34.58;21.65;;;;;;;13.22;56.93;101279.41;5087323;27;96896;-73
2023/03/21 05:04:22;;;;;;;37.92;22.25;;;;;;;13.18;57.25;101285.78;5073370;27;99529;-75
2023/03/21 05:06:48;;;;;;;38.55;22.23;;;;;;;13.25;57.11;101282.84;5084581;27;98862;-75
2023/03/21 05:09:15;;;;;;;36.15;21.40;;;;;;;13.19;57.18;101282.19;5085579;27;96786;-75
2023/03/21 05:11:41;;;;;;;34.53;21.63;;;;;;;13.20;57.44;101278.59;5082291;27;96909;-76
2023/03/21 05:14:10;;;;;;;43.53;24.50;;;;;;;13.06;58.38;101279.94;5079755;27;98951;-76
2023/03/21 05:16:47;;;;;;;42.78;23.15;;;;;;;12.87;59.14;101278.91;5079754;27;99081;-76
2023/03/21 05:19:16;;;;;;;34.10;23.05;;;;;;;13.04;58.94;101283.59;5082327;27;97039;-75
2023/03/21 05:21:43;;;;;;;39.70;24.63;;;;;;;13.10;58.56;101281.56;5079635;27;97582;-76
2023/03/21 05:24:13;;;;;;;36.20;23.40;;;;;;;13.03;59.17;101285.38;5080634;27;99188;-76
2023/03/21 05:26:40;;;;;;;38.65;23.80;;;;;;;13.23;58.65;101275.84;5081453;27;101815;-77
2023/03/21 05:29:07;;;;;;;38.08;24.33;;;;;;;13.28;58.79;101276.53;5078557;27;97232;-76
2023/03/21 05:31:35;;;;;;;36.85;23.35;;;;;;;13.25;58.88;101279.31;5077853;27;96945;-75
2023/03/21 05:34:01;;;;;;;38.42;23.77;;;;;;;13.38;58.91;101275.25;5086054;27;97981;-75
2023/03/21 05:36:29;;;;;;;38.20;23.25;;;;;;;13.44;58.42;101281.19;5077601;27;99147;-75
2023/03/21 05:38:55;;;;;;;42.08;24.33;;;;;;;13.37;58.80;101277.06;5081715;27;97226;-75
2023/03/21 05:41:22;;;;;;;38.80;24.50;;;;;;;13.23;59.23;101275.84;5081882;27;99085;-75
2023/03/21 05:43:48;;;;;;;35.83;22.92;;;;;;;13.56;58.48;101277.19;5085325;27;98764;-75
2023/03/21 05:46:14;;;;;;;41.97;24.40;;;;;;;13.56;58.12;101278.06;5073465;27;97775;-75
2023/03/21 05:48:41;;;;;;;41.45;23.95;;;;;;;13.37;58.83;101285.00;5081949;27;97274;-74
2023/03/21 05:51:25;;;;;;;37.38;23.23;;;;;;;13.51;58.54;101272.06;5075235;27;97697;-75
2023/03/21 05:53:54;;;;;;;38.10;24.02;;;;;;;13.35;59.01;101276.22;5080599;27;98285;-75
2023/03/21 05:56:20;;;;;;;37.28;24.05;;;;;;;13.68;58.29;101282.00;5088113;27;98800;-74
2023/03/21 05:58:47;;;;;;;42.13;26.67;;;;;;;13.56;58.71;101277.19;5078291;27;96809;-74
2023/03/21 06:01:13;;;;;;;41.97;25.15;;;;;;;13.42;58.83;101282.16;5078071;27;97075;-75
2023/03/21 06:03:40;;;;;;;39.10;24.45;;;;;;;13.58;58.89;101283.31;5074641;27;99420;-75
2023/03/21 06:06:07;;;;;;;40.00;23.90;;;;;;;13.73;57.79;101281.81;5083542;27;100957;-74
2023/03/21 06:08:34;;;;;;;36.53;23.05;;;;;;;13.76;57.81;101279.94;5081136;27;98265;-75
2023/03/21 06:11:02;;;;;;;38.72;24.15;;;;;;;13.56;58.57;101287.81;5079901;27;97406;-75
2023/03/21 06:13:30;;;;;;;43.55;24.63;;;;;;;13.66;58.29;101291.81;5075955;27;99002;-73
2023/03/21 06:15:56;;;;;;;39.40;24.50;;;;;;;13.66;58.23;101297.13;5078234;27;98909;-73
2023/03/21 06:18:23;;;;;;;43.25;24.67;;;;;;;13.58;58.39;101291.28;5077994;27;96940;-74
2023/03/21 06:20:49;;;;;;;36.28;23.95;;;;;;;13.90;57.57;101290.88;5083040;27;98800;-74
2023/03/21 06:23:16;;;;;;;44.08;24.83;;;;;;;13.61;58.53;101293.81;5082857;27;99498;-74
2023/03/21 06:25:43;;;;;;;39.90;24.40;;;;;;;13.93;57.22;101287.19;5075052;27;98811;-72
2023/03/21 06:28:11;;;;;;;38.80;22.90;;;;;;;13.64;57.92;101293.69;5079786;27;97369;-73
2023/03/21 06:30:37;;;;;;;42.03;25.10;;;;;;;13.82;57.62;101289.44;5082225;27;96777;-72
2023/03/21 06:33:04;;;;;;;36.42;23.92;;;;;;;13.82;57.44;101290.31;5068708;27;99094;-73
2023/03/21 06:35:30;;;;;;;39.15;24.30;;;;;;;13.92;57.56;101286.31;5079236;27;101802;-72
2023/03/21 06:37:57;;;;;;;35.95;23.02;;;;;;;13.84;57.31;101284.94;5073545;27;97959;-73
2023/03/21 06:40:24;;;;;;;42.95;25.92;;;;;;;13.64;57.88;101293.69;5075112;27;97088;-74
2023/03/21 06:42:50;;;;;;;36.60;24.70;;;;;;;13.78;57.58;101296.69;5071128;27;99100;-73
2023/03/21 06:45:18;;;;;;;42.75;25.23;;;;;;;13.85;57.39;101291.94;5075748;27;100185;-73
2023/03/21 06:47:44;;;;;;;37.45;24.67;;;;;;;13.90;57.52;101290.00;5078163;27;96841;-74
2023/03/21 06:50:11;;;;;;;39.70;24.23;;;;;;;13.88;57.02;101295.38;5086142;27;96896;-72
2023/03/21 06:52:38;;;;;;;41.75;25.50;;;;;;;13.97;57.34;101291.47;5078593;27;98848;-73
2023/03/21 06:55:05;;;;;;;42.17;25.52;;;;;;;13.91;57.39;101294.38;5076566;27;98176;-73
2023/03/21 06:57:32;;;;;;;39.47;25.55;;;;;;;13.98;57.52;101302.97;5080621;27;98231;-73
2023/03/21 06:59:58;;;;;;;45.95;25.00;;;;;;;13.86;57.78;101302.53;5086778;27;96914;-74
2023/03/21 07:02:26;;;;;;;41.78;24.40;;;;;;;13.92;57.79;101304.06;5074686;27;98953;-69
2023/03/21 07:04:54;;;;;;;40.45;24.90;;;;;;;14.13;57.37;101297.00;5078537;27;99191;-74
2023/03/21 07:07:26;;;;;;;39.05;25.70;;;;;;;14.21;57.28;101300.22;5078669;27;98048;-74
2023/03/21 07:09:52;;;;;;;40.47;25.20;;;;;;;13.90;58.29;101296.19;5085520;27;96821;-73
2023/03/21 07:12:18;;;;;;;38.78;24.95;;;;;;;13.64;59.71;101299.00;5077089;27;98830;-73
2023/03/21 07:14:45;;;;;;;43.65;25.52;;;;;;;13.95;59.00;101301.28;5083465;27;98769;-73
2023/03/21 07:17:11;;;;;;;43.88;26.65;;;;;;;13.95;58.94;101299.50;5077622;27;96941;-74
2023/03/21 07:19:39;;;;;;;40.35;25.83;;;;;;;13.88;59.49;101313.97;5074602;27;97166;-73
2023/03/21 07:22:06;;;;;;;45.80;27.02;;;;;;;13.70;59.57;101305.88;5080202;27;99294;-73
2023/03/21 07:24:32;;;;;;;43.20;27.02;;;;;;;13.81;59.87;101306.28;5082134;27;97772;-75
2023/03/21 07:26:58;;;;;;;49.63;26.67;;;;;;;13.82;59.83;101306.25;5075787;27;97527;-75
2023/03/21 07:29:25;;;;;;;46.90;28.15;;;;;;;13.87;60.07;101309.56;5079622;27;97350;-73
2023/03/21 07:31:51;;;;;;;43.03;27.08;;;;;;;14.12;59.39;101311.22;5079263;27;97713;-73
2023/03/21 07:34:18;;;;;;;44.17;27.35;;;;;;;14.19;59.36;101312.69;5074849;27;99245;-73
2023/03/21 07:36:45;;;;;;;39.72;25.70;;;;;;;13.90;59.74;101313.91;5083919;27;96729;-73
2023/03/21 07:39:12;;;;;;;45.60;27.55;;;;;;;14.18;59.30;101306.50;5082183;27;96874;-74
2023/03/21 07:41:38;;;;;;;42.97;26.38;;;;;;;14.06;59.45;101315.00;5082191;27;97750;-74
2023/03/21 07:44:07;;;;;;;48.88;27.13;;;;;;;14.22;59.53;101307.28;5086412;27;99046;-74
2023/03/21 07:46:48;;;;;;;46.83;27.77;;;;;;;13.97;60.13;101318.03;5079773;27;97397;-75
2023/03/21 07:49:14;;;;;;;46.95;26.88;;;;;;;14.15;59.87;101316.41;5084507;27;97107;-73
2023/03/21 07:51:41;;;;;;;44.15;27.13;;;;;;;13.91;60.50;101307.66;5076100;27;97754;-75
2023/03/21 07:54:09;;;;;;;46.22;28.02;;;;;;;13.96;60.17;101311.00;5083601;27;98765;-73
2023/03/21 07:56:36;;;;;;;50.20;27.65;;;;;;;14.05;59.73;101310.59;5086153;27;97239;-74
2023/03/21 07:59:04;;;;;;;47.70;27.20;;;;;;;14.25;59.47;101308.00;5079688;27;96800;-73
2023/03/21 08:01:31;;;;;;;40.65;26.33;;;;;;;14.22;59.17;101308.13;5081309;27;101059;-75
2023/03/21 08:03:57;;;;;;;42.20;26.40;;;;;;;14.30;59.40;101305.16;5077196;27;99278;-74
2023/03/21 08:06:27;;;;;;;41.83;26.20;;;;;;;14.09;59.93;101314.03;5088041;27;96809;-74
2023/03/21 08:08:54;;;;;;;46.85;26.33;;;;;;;14.23;59.24;101298.38;5083063;27;97460;-74
2023/03/21 08:11:23;;;;;;;43.25;25.95;;;;;;;14.29;59.21;101309.63;5091035;27;99224;-73
2023/03/21 08:13:50;;;;;;;42.17;26.23;;;;;;;14.32;58.77;101301.50;5080727;27;99874;-73
2023/03/21 08:16:16;;;;;;;41.58;26.27;;;;;;;14.51;58.88;101298.94;5095474;27;96700;-75
2023/03/21 08:18:43;;;;;;;40.80;24.75;;;;;;;14.46;58.65;101300.94;5077563;27;96877;-74
2023/03/21 08:21:10;;;;;;;41.78;25.08;;;;;;;14.56;58.75;101301.44;5093464;27;98943;-73
2023/03/21 08:23:36;;;;;;;40.22;25.63;;;;;;;14.62;58.95;101299.38;5076002;27;99206;-75
2023/03/21 08:26:03;;;;;;;41.47;24.60;;;;;;;14.61;59.01;101305.63;5083676;27;96821;-73
2023/03/21 08:28:31;;;;;;;39.10;25.40;;;;;;;14.69;59.24;101306.16;5074881;27;96783;-73
2023/03/21 08:30:57;;;;;;;45.28;26.10;;;;;;;14.59;59.53;101315.44;5088360;27;101087;-75
2023/03/21 08:33:24;;;;;;;41.78;25.40;;;;;;;14.75;59.67;101310.34;5078865;27;99332;-74
2023/03/21 08:35:50;;;;;;;42.83;26.77;;;;;;;14.65;59.86;101307.19;5091830;27;97316;-74
2023/03/21 08:38:17;;;;;;;44.45;26.60;;;;;;;14.89;59.38;101307.94;5076681;27;96907;-75
2023/03/21 08:40:43;;;;;;;42.63;25.63;;;;;;;14.82;59.77;101305.59;5088955;27;101250;-74
2023/03/21 08:43:10;;;;;;;42.45;25.35;;;;;;;14.69;60.15;101308.81;5081183;27;98077;-74
2023/03/21 08:45:38;;;;;;;43.70;26.50;;;;;;;14.86;60.24;101315.16;5086977;27;96692;-74
2023/03/21 08:48:05;;;;;;;36.55;23.92;;;;;;;14.98;60.00;101309.31;5087385;27;96862;-74
2023/03/21 08:50:31;;;;;;;37.50;23.60;;;;;;;14.86;59.96;101316.03;5086822;27;98938;-74
2023/03/21 08:52:58;;;;;;;34.60;22.05;;;;;;;14.90;59.61;101311.47;5090571;27;97831;-75
2023/03/21 08:55:24;;;;;;;35.63;22.02;;;;;;;14.77;60.46;101299.63;5087899;27;97176;-74
2023/03/21 08:57:51;;;;;;;40.22;25.67;;;;;;;14.69;60.60;101298.16;5087978;27;96826;-76
2023/03/21 09:00:19;;;;;;;33.95;22.02;;;;;;;14.77;60.59;101307.63;5074303;27;99708;-73
2023/03/21 09:02:50;;;;;;;39.50;22.98;;;;;;;14.58;60.81;101307.53;5081440;27;100693;-74
2023/03/21 09:05:17;;;;;;;32.33;21.10;;;;;;;14.51;61.02;101306.91;5072713;27;96892;-74
2023/03/21 09:07:44;;;;;;;34.10;21.27;;;;;;;14.75;60.86;101313.00;5073422;27;96925;-75
2023/03/21 09:10:13;;;;;;;30.83;21.02;;;;;;;14.90;60.53;101309.63;5075122;27;101302;-74
2023/03/21 09:12:40;;;;;;;34.85;21.58;;;;;;;15.06;59.45;101307.16;5073235;27;98581;-73
2023/03/21 09:15:08;;;;;;;33.70;20.92;;;;;;;14.77;60.39;101310.28;5070665;27;97317;-73
2023/03/21 09:17:35;;;;;;;35.83;23.10;;;;;;;14.95;60.23;101310.31;5075467;27;96921;-73
2023/03/21 09:20:10;;;;;;;40.50;24.58;;;;;;;14.92;59.88;101312.25;5074634;27;101287;-74
2023/03/21 09:22:36;;;;;;;33.60;21.60;;;;;;;14.75;60.32;101313.00;5076594;27;99202;-77
2023/03/21 09:25:07;;;;;;;37.72;22.13;;;;;;;14.51;61.64;101306.91;5078813;27;96863;-74
2023/03/21 09:27:33;;;;;;;35.72;21.83;;;;;;;14.50;61.84;101309.66;5081081;27;96672;-74
2023/03/21 09:30:00;;;;;;;31.92;21.05;;;;;;;14.73;61.06;101313.06;5076877;27;98806;-73
2023/03/21 09:32:27;;;;;;;41.58;22.48;;;;;;;14.93;60.18;101309.50;5074099;27;98950;-73
2023/03/21 09:34:54;;;;;;;34.50;21.52;;;;;;;14.88;60.49;101308.00;5074979;27;97712;-76
2023/03/21 09:37:23;;;;;;;37.60;21.73;;;;;;;15.06;60.37;101307.16;5083848;27;96919;-74
2023/03/21 09:39:50;;;;;;;31.95;21.70;;;;;;;15.00;60.05;101310.09;5073335;27;101633;-75
2023/03/21 09:42:30;;;;;;;37.22;22.63;;;;;;;15.06;60.15;101312.50;5072256;27;97331;-75
2023/03/21 09:45:07;;;;;;;37.72;23.08;;;;;;;15.26;59.67;101304.47;5073704;27;97116;-73
2023/03/21 09:47:44;;;;;;;34.65;20.73;;;;;;;15.19;58.91;101300.34;5078369;27;96891;-74
2023/03/21 09:50:16;;;;;;;36.67;20.75;;;;;;;15.09;59.07;101305.25;5073897;27;99553;-74
2023/03/21 09:52:48;;;;;;;35.67;21.83;;;;;;;14.88;59.44;101300.88;5074994;27;98732;-73
2023/03/21 09:55:21;;;;;;;36.72;22.33;;;;;;;14.91;59.87;101302.53;5072907;27;97610;-74
2023/03/21 09:57:54;;;;;;;34.55;22.25;;;;;;;15.07;59.64;101300.91;5075962;27;96786;-75
2023/03/21 10:00:29;;;;;;;38.25;23.70;;;;;;;15.03;59.21;101299.34;5079305;27;97845;-74
2023/03/21 10:03:00;;;;;;;35.40;21.40;;;;;;;15.36;58.67;101294.25;5082315;27;100554;-73
2023/03/21 10:05:29;;;;;;;37.58;21.95;;;;;;;15.30;58.61;101295.38;5082908;27;97480;-74
2023/03/21 10:08:03;;;;;;;35.65;20.83;;;;;;;15.40;58.29;101286.06;5079151;27;96826;-74
2023/03/21 10:10:34;;;;;;;36.60;21.52;;;;;;;15.41;58.34;101293.13;5073591;27;98145;-75
2023/03/21 10:13:01;;;;;;;36.92;21.80;;;;;;;15.54;58.06;101294.28;5080745;27;98882;-74
2023/03/21 10:15:27;;;;;;;33.30;20.00;;;;;;;15.40;57.88;101291.38;5083261;27;96703;-74
2023/03/21 10:17:59;;;;;;;32.08;20.08;;;;;;;15.40;57.42;101282.53;5081125;27;96821;-74
2023/03/21 10:20:29;;;;;;;35.97;21.17;;;;;;;15.35;57.89;101289.88;5072749;27;100203;-75
2023/03/21 10:22:59;;;;;;;32.28;19.80;;;;;;;14.91;59.20;101279.44;5075029;27;99288;-74
2023/03/21 10:25:30;;;;;;;32.55;20.08;;;;;;;14.87;59.33;101280.53;5076197;27;96951;-75
2023/03/21 10:27:57;;;;;;;33.30;21.02;;;;;;;15.29;58.52;101275.06;5080081;27;96838;-72
2023/03/21 10:30:35;;;;;;;33.10;21.25;;;;;;;15.51;57.82;101266.88;5078944;27;99001;-75
2023/03/21 10:33:04;;;;;;;30.15;20.15;;;;;;;15.69;57.26;101273.16;5078945;27;98910;-73
2023/03/21 10:35:35;;;;;;;40.03;20.77;;;;;;;16.17;56.27;101261.91;5076293;27;97233;-75
2023/03/21 10:38:05;;;;;;;28.70;19.95;;;;;;;16.24;55.44;101263.31;5080778;27;96799;-75
2023/03/21 10:40:31;;;;;;;34.00;20.63;;;;;;;16.52;54.54;101258.28;5083874;27;101227;-74
2023/03/21 10:43:17;;;;;;;30.52;18.95;;;;;;;16.30;54.93;101255.00;5081919;27;101254;-75
2023/03/21 10:45:46;;;;;;;33.80;20.48;;;;;;;16.23;54.73;101259.78;5079797;27;96784;-75
2023/03/21 10:48:14;;;;;;;33.22;20.83;;;;;;;16.12;55.33;101259.47;5079420;27;96833;-75
2023/03/21 10:50:46;;;;;;;30.35;19.48;;;;;;;16.01;55.67;101258.28;5080058;27;98278;-75
2023/03/21 10:53:19;;;;;;;37.47;20.17;;;;;;;16.34;54.69;101257.41;5074200;27;98536;-73
2023/03/21 10:55:47;;;;;;;31.75;20.42;;;;;;;16.39;54.79;101261.69;5078130;27;96740;-75
2023/03/21 10:58:17;;;;;;;30.65;19.05;;;;;;;16.21;54.59;101264.31;5079649;27;97166;-73
2023/03/21 11:00:46;;;;;;;28.65;19.27;;;;;;;16.25;54.91;101260.56;5081796;27;97708;-73
2023/03/21 11:03:21;;;;;;;28.00;18.48;;;;;;;16.23;54.97;101262.44;5073397;27;101454;-74
2023/03/21 11:05:49;;;;;;;29.13;19.33;;;;;;;16.05;54.99;101258.03;5078657;27;96912;-75
2023/03/21 11:08:18;;;;;;;30.52;18.83;;;;;;;16.42;54.38;101253.50;5077221;27;98807;-76
2023/03/21 11:10:52;;;;;;;36.17;18.42;;;;;;;16.19;54.52;101260.03;5073288;27;100927;-74
2023/03/21 11:13:25;;;;;;;29.90;18.15;;;;;;;15.99;55.08;101247.69;5082263;27;99385;-75
2023/03/21 11:15:54;;;;;;;39.92;21.63;;;;;;;16.00;55.32;101249.44;5079568;27;96754;-75
2023/03/21 11:18:23;;;;;;;30.38;19.05;;;;;;;16.28;54.73;101246.19;5079804;27;97205;-73